Time;durP1;ratioP1;P1;durP2;ratioP2;P2;SDS_P1;SDS_P2;PMS_P1;PMS_P2;Temp;Humidity;BMP_temperature;BMP_pressure;BME280_temperature;BME280_humidity;BME280_pressure;Samples;Min_cycle;Max_cycle;Signal;HPM_P1;HPM_P2
2022/07/03 00:00:57;;;;;;;3.97;3.60;;;20.40;92.20;;;;;;5079980;28;20473;-77
2022/07/03 00:03:25;;;;;;;3.63;3.20;;;20.40;92.20;;;;;;5078005;28;20472;-80
2022/07/03 00:05:53;;;;;;;3.27;2.93;;;20.40;92.20;;;;;;5080689;28;20456;-79
2022/07/03 00:08:21;;;;;;;3.67;2.97;;;20.30;92.20;;;;;;5079414;28;20976;-80
2022/07/03 00:10:49;;;;;;;3.80;3.20;;;20.30;92.20;;;;;;5078873;28;20443;-79
2022/07/03 00:13:19;;;;;;;5.03;3.40;;;20.30;92.30;;;;;;5080131;28;21000;-79
2022/07/03 00:15:47;;;;;;;3.33;3.03;;;20.30;92.40;;;;;;5079990;28;20448;-80
2022/07/03 00:18:15;;;;;;;3.87;3.57;;;20.30;92.40;;;;;;5079974;28;20535;-80
2022/07/03 00:20:49;;;;;;;3.87;3.57;;;20.20;92.40;;;;;;5080769;28;20493;-79
2022/07/03 00:23:22;;;;;;;4.77;4.27;;;20.20;92.50;;;;;;5077524;28;20496;-79
2022/07/03 00:25:51;;;;;;;4.40;4.00;;;20.20;92.60;;;;;;5076463;28;20540;-79
2022/07/03 00:28:21;;;;;;;5.13;4.63;;;20.20;92.60;;;;;;5077155;28;20447;-79
2022/07/03 00:30:50;;;;;;;4.47;4.07;;;20.20;92.60;;;;;;5076948;28;20451;-78
2022/07/03 00:33:19;;;;;;;5.67;4.53;;;20.20;93.00;;;;;;5077051;28;21007;-78
2022/07/03 00:35:50;;;;;;;4.83;4.43;;;20.20;92.70;;;;;;5076972;28;20528;-79
2022/07/03 00:38:18;;;;;;;4.37;4.00;;;20.20;92.80;;;;;;5078697;28;20516;-78
2022/07/03 00:40:47;;;;;;;6.27;4.30;;;20.10;92.80;;;;;;5078048;28;20528;-78
2022/07/03 00:43:17;;;;;;;5.13;4.33;;;20.10;92.90;;;;;;5077695;28;21011;-78
2022/07/03 00:45:49;;;;;;;4.77;4.37;;;20.10;93.00;;;;;;5079390;28;20533;-79
2022/07/03 00:48:19;;;;;;;4.60;4.20;;;20.10;93.10;;;;;;5080182;28;20449;-78
2022/07/03 00:50:49;;;;;;;4.50;3.70;;;20.10;93.10;;;;;;5080438;28;20602;-78
2022/07/03 00:53:24;;;;;;;3.90;3.53;;;20.00;93.20;;;;;;5079666;28;20456;-78
2022/07/03 00:55:53;;;;;;;5.07;4.30;;;20.00;93.20;;;;;;5081814;28;20466;-78
2022/07/03 00:58:22;;;;;;;4.00;3.70;;;20.00;93.30;;;;;;5080424;28;20466;-78
2022/07/03 01:00:54;;;;;;;5.87;3.87;;;19.90;93.30;;;;;;5080106;28;20447;-79
2022/07/03 01:03:28;;;;;;;5.30;4.80;;;19.90;93.40;;;;;;5082729;28;20524;-79
2022/07/03 01:05:57;;;;;;;7.13;5.13;;;19.90;93.70;;;;;;5080633;28;20452;-76
2022/07/03 01:08:35;;;;;;;4.90;4.50;;;19.80;93.40;;;;;;5082338;28;21005;-77
2022/07/03 01:11:11;;;;;;;6.80;6.13;;;19.80;93.50;;;;;;5080300;28;20494;-79
2022/07/03 01:13:44;;;;;;;5.53;5.03;;;19.70;93.60;;;;;;5080632;28;20459;-77
2022/07/03 01:16:22;;;;;;;5.90;5.40;;;19.70;93.60;;;;;;5084138;28;20489;-78
2022/07/03 01:18:54;;;;;;;9.17;5.20;;;19.70;93.60;;;;;;5084853;28;20514;-80
2022/07/03 01:21:51;;;;;;;5.50;5.00;;;19.70;93.60;;;;;;5083298;28;20440;-80
2022/07/03 01:24:38;;;;;;;5.80;5.30;;;19.60;93.70;;;;;;5085196;28;20425;-80
2022/07/03 01:27:15;;;;;;;5.30;4.83;;;19.50;93.80;;;;;;5085767;28;20409;-79
2022/07/03 01:29:53;;;;;;;5.47;5.07;;;19.50;93.80;;;;;;5084277;28;20495;-80
2022/07/03 01:32:24;;;;;;;6.20;4.63;;;19.40;93.80;;;;;;5086027;28;20425;-80
2022/07/03 01:34:54;;;;;;;5.23;4.40;;;19.40;93.90;;;;;;5084513;28;20424;-80
2022/07/03 01:37:27;;;;;;;6.90;4.60;;;19.40;94.00;;;;;;5084231;28;20799;-79
2022/07/03 01:39:58;;;;;;;4.87;4.47;;;19.40;94.10;;;;;;5083281;28;20530;-79
2022/07/03 01:42:29;;;;;;;4.97;4.20;;;19.30;94.40;;;;;;5084530;28;20457;-79
2022/07/03 01:45:00;;;;;;;6.70;4.23;;;19.30;94.10;;;;;;5084394;28;20508;-79
2022/07/03 01:47:30;;;;;;;4.90;4.30;;;19.20;94.10;;;;;;5082143;28;20480;-80
2022/07/03 01:49:59;;;;;;;6.40;4.60;;;19.20;94.20;;;;;;5083880;28;20958;-79
2022/07/03 01:52:31;;;;;;;4.83;4.40;;;19.20;94.20;;;;;;5080127;28;20508;-79
2022/07/03 01:55:16;;;;;;;5.07;4.37;;;19.10;94.30;;;;;;5078938;28;20528;-79
2022/07/03 01:57:47;;;;;;;4.27;3.97;;;19.10;94.30;;;;;;5079074;28;20833;-78
2022/07/03 02:00:18;;;;;;;4.50;4.10;;;19.00;94.30;;;;;;5082557;28;20461;-78
2022/07/03 02:02:54;;;;;;;4.77;4.37;;;19.00;94.40;;;;;;5078886;28;20467;-78
2022/07/03 02:05:29;;;;;;;5.33;4.93;;;18.90;94.40;;;;;;5078165;28;20473;-77
2022/07/03 02:08:04;;;;;;;5.87;4.57;;;18.90;94.40;;;;;;5078579;28;20452;-80
2022/07/03 02:10:38;;;;;;;4.70;4.20;;;18.90;94.50;;;;;;5078006;28;20521;-77
2022/07/03 02:13:17;;;;;;;6.00;5.20;;;18.80;94.50;;;;;;5077918;28;20440;-79
2022/07/03 02:15:46;;;;;;;4.77;4.47;;;18.80;94.70;;;;;;5077620;28;20461;-80
2022/07/03 02:18:26;;;;;;;6.83;5.30;;;18.70;94.80;;;;;;5078411;28;20467;-77
2022/07/03 02:21:04;;;;;;;4.90;4.50;;;18.70;95.00;;;;;;5078149;28;20942;-78
2022/07/03 02:23:40;;;;;;;5.63;4.63;;;18.70;95.00;;;;;;5079873;28;20532;-78
2022/07/03 02:26:11;;;;;;;5.10;4.70;;;18.60;95.10;;;;;;5078442;28;20466;-78
2022/07/03 02:28:55;;;;;;;5.50;4.97;;;18.60;95.10;;;;;;5079801;28;20453;-78
2022/07/03 02:31:27;;;;;;;5.77;5.30;;;18.60;95.20;;;;;;5079064;28;20535;-80
2022/07/03 02:33:58;;;;;;;5.20;4.80;;;18.50;95.20;;;;;;5080552;28;20437;-79
2022/07/03 02:36:30;;;;;;;5.20;4.47;;;18.50;95.20;;;;;;5080537;28;20496;-79
2022/07/03 02:38:59;;;;;;;5.23;4.73;;;18.40;95.30;;;;;;5079513;28;21060;-78
2022/07/03 02:41:38;;;;;;;5.90;5.40;;;18.40;95.30;;;;;;5080477;28;20463;-77
2022/07/03 02:44:22;;;;;;;6.17;5.20;;;18.40;95.30;;;;;;5081286;28;20453;-78
2022/07/03 02:47:00;;;;;;;4.83;4.43;;;18.30;95.30;;;;;;5081044;28;20441;-79
2022/07/03 02:49:44;;;;;;;5.20;4.80;;;18.30;95.40;;;;;;5080485;28;20473;-78
2022/07/03 02:52:29;;;;;;;5.47;4.97;;;18.20;95.40;;;;;;5081221;28;20441;-79
2022/07/03 02:55:11;;;;;;;5.33;4.83;;;18.20;95.50;;;;;;5082109;28;20421;-79
2022/07/03 02:57:42;;;;;;;8.13;5.20;;;18.10;95.50;;;;;;5082359;28;20453;-78
2022/07/03 03:00:13;;;;;;;4.97;4.50;;;18.10;95.60;;;;;;5082582;28;20515;-78
2022/07/03 03:03:01;;;;;;;5.70;5.20;;;18.10;95.70;;;;;;5081043;28;20459;-78
2022/07/03 03:05:34;;;;;;;5.20;4.70;;;18.10;95.90;;;;;;5080098;28;20452;-78
2022/07/03 03:08:12;;;;;;;6.77;6.10;;;18.00;95.90;;;;;;5078933;28;20442;-78
2022/07/03 03:10:41;;;;;;;7.63;5.03;;;18.00;96.00;;;;;;5082211;28;20417;-78
2022/07/03 03:13:12;;;;;;;5.80;5.33;;;18.00;96.10;;;;;;5080637;28;20433;-78
2022/07/03 03:15:54;;;;;;;5.97;5.47;;;18.00;96.20;;;;;;5077701;28;20457;-77
2022/07/03 03:18:23;;;;;;;6.53;5.70;;;18.00;96.30;;;;;;5078844;28;20840;-78
2022/07/03 03:20:55;;;;;;;5.37;4.97;;;18.00;96.40;;;;;;5079941;28;20432;-79
2022/07/03 03:23:34;;;;;;;6.50;5.90;;;17.90;96.40;;;;;;5080315;28;20872;-79
2022/07/03 03:26:03;;;;;;;10.97;10.00;;;17.90;96.50;;;;;;5078889;28;20524;-79
2022/07/03 03:28:31;;;;;;;9.57;7.77;;;17.90;96.60;;;;;;5077194;28;20452;-77
2022/07/03 03:31:06;;;;;;;7.10;6.47;;;17.90;96.70;;;;;;5078128;28;20976;-78
2022/07/03 03:33:40;;;;;;;9.40;8.30;;;17.90;96.80;;;;;;5076441;28;20453;-78
2022/07/03 03:36:09;;;;;;;10.40;9.50;;;17.80;96.90;;;;;;5075742;28;20440;-79
2022/07/03 03:38:38;;;;;;;13.07;11.87;;;17.80;97.00;;;;;;5079687;28;20461;-79
2022/07/03 03:41:08;;;;;;;13.73;12.33;;;17.80;97.10;;;;;;5077436;28;20437;-78
2022/07/03 03:43:45;;;;;;;12.20;11.10;;;17.70;97.00;;;;;;5077347;28;20439;-78
2022/07/03 03:46:15;;;;;;;14.90;13.50;;;17.80;97.20;;;;;;5077802;28;20502;-78
2022/07/03 03:48:44;;;;;;;13.63;12.33;;;17.70;97.20;;;;;;5078918;28;20464;-79
2022/07/03 03:51:13;;;;;;;11.40;10.40;;;17.70;97.20;;;;;;5078555;28;20510;-78
2022/07/03 03:53:42;;;;;;;8.07;7.47;;;17.70;97.40;;;;;;5077451;28;20445;-78
2022/07/03 03:56:12;;;;;;;8.70;8.00;;;17.70;97.50;;;;;;5076914;28;20810;-77
2022/07/03 03:58:42;;;;;;;8.10;7.40;;;17.70;97.60;;;;;;5078780;28;20552;-78
2022/07/03 04:01:11;;;;;;;9.83;6.43;;;17.70;97.70;;;;;;5076045;28;20450;-79
2022/07/03 04:03:41;;;;;;;7.27;6.57;;;17.70;97.80;;;;;;5076978;28;20473;-79
2022/07/03 04:06:10;;;;;;;8.23;7.50;;;17.70;97.90;;;;;;5076772;28;20442;-78
2022/07/03 04:08:39;;;;;;;7.57;6.97;;;17.70;97.90;;;;;;5074998;28;20473;-78
2022/07/03 04:11:07;;;;;;;6.90;6.40;;;17.70;98.00;;;;;;5076551;28;20452;-80
2022/07/03 04:13:35;;;;;;;8.03;7.23;;;17.70;98.10;;;;;;5076420;28;20524;-77
2022/07/03 04:16:05;;;;;;;7.33;6.73;;;17.70;98.20;;;;;;5074811;28;20452;-78
2022/07/03 04:18:33;;;;;;;8.07;7.27;;;17.70;98.30;;;;;;5074129;28;20453;-77
2022/07/03 04:21:03;;;;;;;7.90;7.30;;;17.70;98.50;;;;;;5075401;28;20541;-77
2022/07/03 04:23:32;;;;;;;8.00;7.27;;;17.70;98.60;;;;;;5075304;28;20441;-78
2022/07/03 04:26:04;;;;;;;7.37;6.87;;;17.70;98.70;;;;;;5074184;28;20472;-78
2022/07/03 04:28:36;;;;;;;7.33;6.83;;;17.80;98.90;;;;;;5074822;28;20420;-77
2022/07/03 04:31:05;;;;;;;7.57;6.97;;;17.80;98.90;;;;;;5074571;28;20972;-77
2022/07/03 04:33:33;;;;;;;7.07;6.57;;;17.80;99.00;;;;;;5073942;28;20441;-78
2022/07/03 04:36:04;;;;;;;7.37;6.73;;;17.80;99.10;;;;;;5074464;28;20445;-78
2022/07/03 04:38:33;;;;;;;8.00;7.30;;;17.80;99.20;;;;;;5074899;28;20481;-79
2022/07/03 04:41:01;;;;;;;7.43;6.83;;;17.90;99.30;;;;;;5075408;28;20441;-79
2022/07/03 04:43:29;;;;;;;6.97;6.27;;;17.90;99.40;;;;;;5075357;28;20821;-77
2022/07/03 04:45:58;;;;;;;7.40;6.80;;;17.90;99.40;;;;;;5075564;28;20477;-79
2022/07/03 04:48:28;;;;;;;7.77;7.27;;;17.90;99.50;;;;;;5076186;28;20439;-78
2022/07/03 04:50:57;;;;;;;7.57;6.93;;;17.90;99.60;;;;;;5076381;28;20444;-78
2022/07/03 04:53:27;;;;;;;7.53;6.93;;;17.90;99.70;;;;;;5074283;28;20441;-80
2022/07/03 04:55:56;;;;;;;7.70;7.00;;;17.90;99.80;;;;;;5075652;28;20437;-78
2022/07/03 04:58:25;;;;;;;7.77;7.20;;;17.90;99.80;;;;;;5074121;28;20452;-78
2022/07/03 05:00:53;;;;;;;7.50;6.90;;;17.90;99.90;;;;;;5075439;28;20441;-78
2022/07/03 05:03:21;;;;;;;7.50;6.77;;;17.90;99.90;;;;;;5073723;28;20949;-79
2022/07/03 05:05:49;;;;;;;8.23;6.53;;;18.00;99.90;;;;;;5073394;28;20465;-77
2022/07/03 05:08:19;;;;;;;7.30;6.50;;;18.00;99.90;;;;;;5074841;28;20533;-78
2022/07/03 05:10:48;;;;;;;8.07;7.47;;;18.00;99.90;;;;;;5075262;28;21000;-79
2022/07/03 05:13:16;;;;;;;7.03;6.53;;;18.00;99.90;;;;;;5074157;28;20946;-80
2022/07/03 05:15:45;;;;;;;7.50;6.90;;;18.10;99.90;;;;;;5074622;28;20970;-79
2022/07/03 05:18:13;;;;;;;7.93;7.30;;;18.10;99.90;;;;;;5074477;28;20491;-80
2022/07/03 05:20:48;;;;;;;7.83;7.10;;;18.10;99.90;;;;;;5074816;28;20441;-80
2022/07/03 05:23:16;;;;;;;7.87;7.23;;;18.20;99.90;;;;;;5074515;28;20867;-79
2022/07/03 05:25:45;;;;;;;7.20;6.60;;;18.20;99.90;;;;;;5074379;28;20498;-79
2022/07/03 05:28:14;;;;;;;8.60;7.90;;;18.30;99.90;;;;;;5074443;28;20830;-79
2022/07/03 05:30:42;;;;;;;7.13;6.57;;;18.40;99.90;;;;;;5076259;28;20456;-79
2022/07/03 05:33:11;;;;;;;7.40;6.40;;;18.40;99.90;;;;;;5078031;28;20453;-79
2022/07/03 05:35:39;;;;;;;7.70;7.10;;;18.50;99.90;;;;;;5077851;28;20498;-79
2022/07/03 05:38:07;;;;;;;7.33;6.50;;;18.60;99.90;;;;;;5079460;28;20444;-79
2022/07/03 05:40:34;;;;;;;6.60;6.00;;;18.80;99.90;;;;;;5079239;28;20457;-79
2022/07/03 05:43:03;;;;;;;5.93;5.53;;;19.00;99.90;;;;;;5079649;28;20487;-79
2022/07/03 05:45:32;;;;;;;5.93;5.43;;;19.10;99.90;;;;;;5078178;28;20469;-79
2022/07/03 05:48:00;;;;;;;6.37;5.87;;;19.30;99.90;;;;;;5077647;28;20946;-80
2022/07/03 05:50:30;;;;;;;7.97;5.53;;;19.40;99.90;;;;;;5077874;28;20508;-78
2022/07/03 05:52:58;;;;;;;6.03;5.40;;;19.60;99.90;;;;;;5077036;28;20449;-80
2022/07/03 05:55:26;;;;;;;6.00;5.40;;;19.70;99.90;;;;;;5076492;28;20449;-79
2022/07/03 05:57:54;;;;;;;6.73;6.23;;;19.90;99.90;;;;;;5072358;28;20457;-79
2022/07/03 06:00:23;;;;;;;5.87;5.40;;;19.90;99.90;;;;;;5069674;28;20483;-78
2022/07/03 06:02:52;;;;;;;5.27;4.77;;;20.00;99.90;;;;;;5072199;28;20524;-78
2022/07/03 06:05:20;;;;;;;5.80;5.30;;;20.20;99.90;;;;;;5064272;28;20889;-78
2022/07/03 06:07:49;;;;;;;6.03;5.57;;;20.20;99.90;;;;;;5081500;28;20492;-76
2022/07/03 06:10:17;;;;;;;5.33;4.83;;;20.20;99.90;;;;;;5064955;28;20888;-76
2022/07/03 06:12:46;;;;;;;6.07;5.47;;;20.30;99.90;;;;;;5056770;28;20475;-77
2022/07/03 06:15:14;;;;;;;5.57;4.90;;;20.40;99.90;;;;;;5056718;28;20882;-78
2022/07/03 06:17:43;;;;;;;5.73;4.63;;;20.40;99.90;;;;;;5058461;28;20449;-79
2022/07/03 06:20:13;;;;;;;5.50;5.00;;;20.50;99.90;;;;;;5079692;28;20464;-79
2022/07/03 06:22:42;;;;;;;5.63;5.10;;;20.50;99.90;;;;;;5069119;28;20536;-78
2022/07/03 06:25:10;;;;;;;5.20;4.53;;;20.60;99.90;;;;;;5067371;28;20997;-77
2022/07/03 06:27:38;;;;;;;5.37;4.87;;;20.70;99.90;;;;;;5073812;28;21025;-78
2022/07/03 06:30:08;;;;;;;6.10;5.60;;;20.80;99.90;;;;;;5064204;28;20845;-77
2022/07/03 06:32:36;;;;;;;6.23;4.63;;;20.80;99.90;;;;;;5076584;28;20531;-77
2022/07/03 06:35:05;;;;;;;4.97;4.57;;;21.10;99.90;;;;;;5077091;28;20453;-78
2022/07/03 06:37:35;;;;;;;4.60;4.17;;;21.40;99.90;;;;;;5076461;28;20441;-77
2022/07/03 06:40:04;;;;;;;6.40;4.80;;;21.60;99.90;;;;;;5060602;28;20470;-77
2022/07/03 06:42:32;;;;;;;5.40;4.67;;;21.80;99.90;;;;;;5063933;28;20434;-77
2022/07/03 06:45:00;;;;;;;6.07;5.00;;;21.90;99.90;;;;;;5071146;28;20462;-78
2022/07/03 06:47:29;;;;;;;5.70;4.37;;;22.20;99.90;;;;;;5071742;28;20442;-78
2022/07/03 06:49:57;;;;;;;4.20;3.80;;;22.50;99.90;;;;;;5060573;28;20569;-78
2022/07/03 06:52:26;;;;;;;4.17;3.80;;;22.90;99.90;;;;;;5059038;28;20434;-77
2022/07/03 06:54:56;;;;;;;4.77;4.47;;;23.10;99.90;;;;;;5055786;28;20460;-78
2022/07/03 06:57:24;;;;;;;4.13;3.53;;;23.40;99.90;;;;;;5059863;28;20470;-79
2022/07/03 06:59:52;;;;;;;4.47;4.00;;;23.70;99.80;;;;;;5057800;28;20458;-76
2022/07/03 07:02:20;;;;;;;4.73;4.30;;;24.00;99.60;;;;;;5057025;28;20434;-78
2022/07/03 07:04:48;;;;;;;4.07;3.53;;;24.20;99.30;;;;;;5056968;28;20826;-77
2022/07/03 07:07:17;;;;;;;4.30;3.20;;;24.20;98.80;;;;;;5056310;28;20446;-76
2022/07/03 07:09:45;;;;;;;4.47;4.07;;;24.20;98.30;;;;;;5055875;28;20458;-77
2022/07/03 07:12:15;;;;;;;4.10;3.70;;;24.10;98.10;;;;;;5055579;28;20438;-77
2022/07/03 07:14:43;;;;;;;4.53;4.03;;;24.10;97.90;;;;;;5055741;28;20553;-77
2022/07/03 07:17:11;;;;;;;5.97;5.20;;;24.10;97.80;;;;;;5056518;28;20781;-77
2022/07/03 07:19:39;;;;;;;4.33;3.93;;;24.20;97.80;;;;;;5058334;28;20502;-77
2022/07/03 07:22:08;;;;;;;5.10;3.97;;;24.30;97.90;;;;;;5054886;28;20453;-76
2022/07/03 07:24:36;;;;;;;5.00;4.40;;;24.40;97.90;;;;;;5056694;28;20454;-77
2022/07/03 07:27:05;;;;;;;3.83;3.53;;;24.60;97.80;;;;;;5057250;28;21007;-77
2022/07/03 07:29:35;;;;;;;4.80;3.53;;;24.80;97.60;;;;;;5055444;28;20882;-77
2022/07/03 07:32:03;;;;;;;4.67;3.87;;;25.10;97.70;;;;;;5054640;28;20446;-77
2022/07/03 07:34:32;;;;;;;12.20;3.90;;;25.30;97.10;;;;;;5053752;28;20883;-77
2022/07/03 07:37:00;;;;;;;5.00;3.67;;;25.50;96.80;;;;;;5055405;28;20441;-77
2022/07/03 07:39:28;;;;;;;3.50;3.03;;;25.80;96.70;;;;;;5054834;28;20457;-77
2022/07/03 07:41:56;;;;;;;3.70;2.77;;;26.00;96.40;;;;;;5054599;28;20438;-77
2022/07/03 07:44:24;;;;;;;7.27;3.73;;;26.20;96.00;;;;;;5054686;28;20520;-76
2022/07/03 07:46:54;;;;;;;4.20;2.73;;;26.50;95.90;;;;;;5055819;28;20465;-77
2022/07/03 07:49:22;;;;;;;3.87;2.77;;;26.70;95.60;;;;;;5053576;28;20466;-76
2022/07/03 07:51:50;;;;;;;3.00;2.30;;;26.80;94.90;;;;;;5054048;28;20508;-77
2022/07/03 07:54:18;;;;;;;4.03;2.50;;;26.90;94.30;;;;;;5051744;28;20508;-76
2022/07/03 07:56:46;;;;;;;3.83;2.50;;;27.00;93.80;;;;;;5054517;28;20518;-76
2022/07/03 07:59:15;;;;;;;3.37;3.00;;;27.10;93.30;;;;;;5054308;28;20469;-76
2022/07/03 08:07:16;;;;;;;3.90;2.10;;;27.40;92.70;;;;;;5053309;28;20462;-76
2022/07/03 08:09:44;;;;;;;7.43;2.40;;;27.50;92.20;;;;;;5052670;28;20465;-77
2022/07/03 08:12:13;;;;;;;2.73;2.40;;;27.50;91.80;;;;;;5052615;28;20469;-77
2022/07/03 08:14:41;;;;;;;3.30;2.83;;;27.60;91.40;;;;;;5054171;28;20450;-78
2022/07/03 08:17:09;;;;;;;3.03;2.30;;;27.60;91.20;;;;;;5054890;28;20982;-77
2022/07/03 08:19:38;;;;;;;3.30;2.67;;;27.70;90.90;;;;;;5055041;28;20470;-77
2022/07/03 08:22:07;;;;;;;4.13;2.57;;;27.80;90.70;;;;;;5054733;28;20448;-77
2022/07/03 08:24:37;;;;;;;4.03;2.40;;;27.90;90.70;;;;;;5053480;28;20472;-78
2022/07/03 08:27:11;;;;;;;4.07;2.03;;;28.00;90.70;;;;;;5054225;28;21028;-76
2022/07/03 08:29:39;;;;;;;4.00;1.83;;;28.10;90.60;;;;;;5054770;28;20457;-78
2022/07/03 08:32:09;;;;;;;3.20;2.00;;;28.30;90.30;;;;;;5054231;28;20442;-77
2022/07/03 08:34:38;;;;;;;2.30;1.73;;;28.30;89.10;;;;;;5053862;28;20438;-77
2022/07/03 08:37:07;;;;;;;3.67;2.03;;;28.30;88.10;;;;;;5053188;28;20481;-79
2022/07/03 08:39:35;;;;;;;2.90;2.00;;;28.40;87.70;;;;;;5057782;28;20469;-78
2022/07/03 08:42:05;;;;;;;3.60;2.10;;;28.40;87.40;;;;;;5057058;28;20442;-78
2022/07/03 08:44:36;;;;;;;4.70;1.77;;;28.40;86.80;;;;;;5054155;28;20442;-77
2022/07/03 08:47:07;;;;;;;2.00;1.80;;;28.50;86.20;;;;;;5058642;28;20480;-78
2022/07/03 08:49:36;;;;;;;1.50;1.30;;;28.50;85.50;;;;;;5058269;28;20504;-82
2022/07/03 08:52:09;;;;;;;4.13;1.57;;;28.50;84.70;;;;;;5057539;28;20521;-81
2022/07/03 08:54:38;;;;;;;1.40;1.20;;;28.60;83.70;;;;;;5054937;28;20504;-81
2022/07/03 08:57:08;;;;;;;1.60;1.43;;;28.60;83.30;;;;;;5053497;28;20446;-80
2022/07/03 08:59:38;;;;;;;2.03;1.00;;;28.60;82.50;;;;;;5053371;28;20994;-79
2022/07/03 09:02:07;;;;;;;2.23;1.20;;;28.60;81.00;;;;;;5053815;28;20460;-80
2022/07/03 09:04:36;;;;;;;3.53;1.20;;;28.60;79.80;;;;;;5054639;28;20446;-80
2022/07/03 09:07:07;;;;;;;2.47;1.40;;;28.60;79.00;;;;;;5061772;28;20524;-79
2022/07/03 09:09:36;;;;;;;2.47;1.30;;;28.70;79.00;;;;;;5061019;28;20540;-80
2022/07/03 09:12:05;;;;;;;4.43;1.40;;;28.70;78.70;;;;;;5061964;28;20529;-80
2022/07/03 09:14:34;;;;;;;2.27;1.27;;;28.70;77.90;;;;;;5065106;28;20485;-80
2022/07/03 09:17:03;;;;;;;2.23;1.30;;;28.80;77.60;;;;;;5061645;28;20536;-81
2022/07/03 09:19:45;;;;;;;2.37;1.67;;;28.80;77.40;;;;;;5062199;28;20457;-82
2022/07/03 09:22:25;;;;;;;3.40;2.03;;;28.90;77.00;;;;;;5062100;28;20432;-80
2022/07/03 09:24:55;;;;;;;2.30;2.10;;;29.00;77.80;;;;;;5059594;28;20448;-82
2022/07/03 09:27:24;;;;;;;4.00;1.60;;;29.10;78.20;;;;;;5059608;28;20872;-81
2022/07/03 09:30:00;;;;;;;2.83;1.43;;;29.20;77.50;;;;;;5061303;28;20476;-81
2022/07/03 09:32:32;;;;;;;2.50;2.17;;;29.40;76.90;;;;;;5060367;28;20434;-80
2022/07/03 09:35:21;;;;;;;1.67;1.17;;;29.40;75.90;;;;;;5060913;28;20426;-81
2022/07/03 09:37:53;;;;;;;1.70;1.40;;;29.40;75.40;;;;;;5059432;28;20430;-81
2022/07/03 09:40:22;;;;;;;3.13;2.00;;;29.20;75.10;;;;;;5059647;28;20821;-80
2022/07/03 09:43:08;;;;;;;4.37;1.20;;;29.20;75.00;;;;;;5059578;28;20827;-79
2022/07/03 09:45:54;;;;;;;3.63;1.60;;;29.20;73.60;;;;;;5061389;28;20533;-78
2022/07/03 09:48:34;;;;;;;2.20;1.70;;;29.00;74.10;;;;;;5056797;28;20462;-76
2022/07/03 09:51:19;;;;;;;2.03;1.73;;;28.90;74.40;;;;;;5056974;28;20429;-76
2022/07/03 09:53:55;;;;;;;2.50;1.53;;;29.00;75.70;;;;;;5057657;28;20796;-76
2022/07/03 09:56:27;;;;;;;1.60;1.30;;;29.10;75.30;;;;;;5057082;28;20417;-75
2022/07/03 09:59:03;;;;;;;3.47;1.60;;;29.20;75.00;;;;;;5056498;28;20488;-77
2022/07/03 10:01:32;;;;;;;3.97;1.60;;;29.30;75.00;;;;;;5056674;28;20422;-75
2022/07/03 10:04:14;;;;;;;3.83;1.30;;;29.30;74.60;;;;;;5056127;28;20951;-75
2022/07/03 10:06:50;;;;;;;5.33;1.50;;;29.30;73.90;;;;;;5056870;28;20463;-76
2022/07/03 10:09:21;;;;;;;2.07;1.50;;;29.30;73.80;;;;;;5056701;28;20543;-76
2022/07/03 10:11:50;;;;;;;2.73;1.40;;;29.20;73.40;;;;;;5055730;28;20454;-76
2022/07/03 10:14:20;;;;;;;2.27;1.37;;;29.10;73.00;;;;;;5062785;28;20485;-77
2022/07/03 10:16:49;;;;;;;4.00;1.60;;;29.10;72.90;;;;;;5061409;28;20458;-76
2022/07/03 10:19:20;;;;;;;3.03;1.80;;;29.20;72.90;;;;;;5059004;28;20519;-75
2022/07/03 10:21:53;;;;;;;4.20;1.70;;;29.20;72.50;;;;;;5056798;28;20430;-75
2022/07/03 10:24:25;;;;;;;3.20;1.90;;;29.10;72.70;;;;;;5054630;28;20529;-76
2022/07/03 10:26:55;;;;;;;2.50;2.07;;;29.00;72.00;;;;;;5056545;28;20806;-76
2022/07/03 10:29:24;;;;;;;3.90;2.43;;;28.90;71.90;;;;;;5056455;28;20914;-76
2022/07/03 10:31:57;;;;;;;2.77;1.80;;;28.80;72.80;;;;;;5056639;28;20426;-77
2022/07/03 10:34:28;;;;;;;2.30;2.10;;;28.60;73.20;;;;;;5056914;28;20430;-76
2022/07/03 10:37:00;;;;;;;3.43;2.20;;;28.60;73.90;;;;;;5055968;28;20429;-76
2022/07/03 10:39:45;;;;;;;4.93;2.50;;;28.50;74.50;;;;;;5054449;28;20566;-77
2022/07/03 10:45:12;;;;;;;2.23;2.03;;;28.70;75.30;;;;;;5054481;28;20541;-75
2022/07/03 10:47:49;;;;;;;3.40;2.23;;;28.80;75.20;;;;;;5055726;28;20958;-75
2022/07/03 10:50:18;;;;;;;3.10;2.30;;;29.00;75.90;;;;;;5056161;28;20462;-75
2022/07/03 10:52:47;;;;;;;4.13;2.40;;;29.10;74.90;;;;;;5054008;28;20437;-76
2022/07/03 10:55:18;;;;;;;5.00;2.40;;;29.20;74.80;;;;;;5054247;28;21038;-76
2022/07/03 10:58:09;;;;;;;3.50;2.50;;;29.40;74.70;;;;;;5054003;28;20517;-76
2022/07/03 11:00:58;;;;;;;2.80;2.17;;;29.30;74.10;;;;;;5055919;28;20556;-77
2022/07/03 11:03:53;;;;;;;5.00;3.03;;;29.20;74.20;;;;;;5049836;28;20439;-77
2022/07/03 11:06:21;;;;;;;4.23;2.80;;;29.00;74.20;;;;;;5053928;28;20449;-76
2022/07/03 11:09:03;;;;;;;5.10;2.47;;;28.80;74.40;;;;;;5053959;28;20585;-77
2022/07/03 11:11:56;;;;;;;3.53;2.30;;;28.70;75.20;;;;;;5055350;28;20440;-77
2022/07/03 11:14:26;;;;;;;2.90;2.60;;;28.60;75.40;;;;;;5054939;28;20896;-76
2022/07/03 11:17:18;;;;;;;3.80;2.67;;;28.60;75.50;;;;;;5054446;28;20446;-76
2022/07/03 11:20:23;;;;;;;3.07;2.57;;;28.70;75.90;;;;;;5053725;28;20462;-76
2022/07/03 11:22:45;;;;;;;2.40;2.00;;;28.80;76.50;;;;;;5057955;28;20485;-81
2022/07/03 11:25:15;;;;;;;3.30;2.20;;;29.00;76.30;;;;;;5056795;28;20448;-77
2022/07/03 11:27:47;;;;;;;3.10;2.70;;;29.00;76.10;;;;;;5057618;28;20466;-77
2022/07/03 11:30:15;;;;;;;2.47;2.00;;;29.20;76.00;;;;;;5057029;28;20527;-78
2022/07/03 11:32:57;;;;;;;2.17;1.80;;;29.20;75.10;;;;;;5057520;28;20943;-77
2022/07/03 11:35:53;;;;;;;3.47;2.10;;;29.10;74.10;;;;;;5059773;28;20422;-77
2022/07/03 11:38:27;;;;;;;2.10;1.70;;;29.10;73.20;;;;;;5058724;28;20481;-78
2022/07/03 11:40:57;;;;;;;4.40;1.70;;;29.10;73.50;;;;;;5058520;28;20513;-77
2022/07/03 11:43:27;;;;;;;2.87;1.87;;;29.10;73.00;;;;;;5057913;28;20492;-77
2022/07/03 11:45:56;;;;;;;1.93;1.40;;;29.10;72.30;;;;;;5059825;28;20430;-78
2022/07/03 11:48:26;;;;;;;2.77;1.83;;;29.00;71.60;;;;;;5057650;28;20907;-79
2022/07/03 11:51:00;;;;;;;2.87;1.47;;;29.00;71.30;;;;;;5059549;28;20441;-77
2022/07/03 11:53:30;;;;;;;3.23;1.77;;;29.00;70.80;;;;;;5059541;28;20778;-78
2022/07/03 11:56:00;;;;;;;4.80;1.73;;;29.10;70.40;;;;;;5056050;28;20497;-78
2022/07/03 11:58:44;;;;;;;1.97;1.30;;;29.00;69.80;;;;;;5057966;28;21005;-78
2022/07/03 12:01:28;;;;;;;5.90;2.20;;;29.00;69.80;;;;;;5057209;28;20476;-78
2022/07/03 12:04:05;;;;;;;2.80;2.20;;;29.00;69.30;;;;;;5058811;28;20441;-78
2022/07/03 12:06:39;;;;;;;3.17;2.00;;;29.10;69.10;;;;;;5056878;28;20437;-79
2022/07/03 12:09:15;;;;;;;5.13;2.00;;;29.20;69.10;;;;;;5056655;28;20483;-76
2022/07/03 12:11:52;;;;;;;2.80;1.57;;;29.20;69.50;;;;;;5059370;28;20536;-79
2022/07/03 12:14:37;;;;;;;2.80;1.50;;;29.10;69.60;;;;;;5056589;28;20477;-79
2022/07/03 12:17:07;;;;;;;4.33;2.20;;;29.10;69.90;;;;;;5058634;28;21025;-79
2022/07/03 12:19:37;;;;;;;3.00;1.63;;;29.00;70.10;;;;;;5059488;28;20512;-80
2022/07/03 12:22:05;;;;;;;1.90;1.40;;;28.80;70.40;;;;;;5060254;28;20507;-78
2022/07/03 12:24:34;;;;;;;3.53;1.57;;;28.80;70.80;;;;;;5058064;28;20867;-79
2022/07/03 12:27:06;;;;;;;2.03;1.60;;;28.70;70.90;;;;;;5058313;28;20537;-78
2022/07/03 12:29:38;;;;;;;2.03;1.67;;;28.70;71.20;;;;;;5056650;28;20481;-78
2022/07/03 12:32:11;;;;;;;1.83;1.30;;;28.80;71.60;;;;;;5056858;28;20441;-77
2022/07/03 12:34:39;;;;;;;4.80;1.70;;;28.80;71.80;;;;;;5057436;28;20456;-78
2022/07/03 12:37:08;;;;;;;2.13;1.70;;;28.80;70.90;;;;;;5056801;28;20829;-78
2022/07/03 12:39:43;;;;;;;2.80;1.30;;;28.90;70.90;;;;;;5056723;28;20987;-78
2022/07/03 12:42:16;;;;;;;3.77;1.47;;;28.80;70.70;;;;;;5055146;28;20441;-78
2022/07/03 12:44:56;;;;;;;1.50;1.20;;;28.80;70.90;;;;;;5054901;28;20450;-78
2022/07/03 12:47:25;;;;;;;4.87;2.23;;;28.90;71.20;;;;;;5054641;28;20455;-78
2022/07/03 12:50:00;;;;;;;2.67;1.57;;;28.90;71.10;;;;;;5057024;28;20501;-78
2022/07/03 12:52:29;;;;;;;2.40;1.53;;;29.00;71.30;;;;;;5057032;28;20417;-78
2022/07/03 12:54:58;;;;;;;2.03;1.30;;;29.00;71.10;;;;;;5058136;28;20450;-77
2022/07/03 13:00:16;;;;;;;2.47;1.57;;;29.10;70.80;;;;;;5058388;28;20553;-78
2022/07/03 13:02:46;;;;;;;5.10;2.77;;;29.10;71.00;;;;;;5058443;28;20419;-78
2022/07/03 13:05:16;;;;;;;3.57;1.50;;;29.00;71.20;;;;;;5057362;28;20541;-78
2022/07/03 13:07:46;;;;;;;2.53;1.63;;;28.90;71.20;;;;;;5057390;28;20512;-77
2022/07/03 13:10:16;;;;;;;3.40;1.63;;;28.80;71.20;;;;;;5055643;28;20482;-77
2022/07/03 13:12:50;;;;;;;4.43;2.70;;;28.80;71.30;;;;;;5057460;28;20505;-79
2022/07/03 13:15:21;;;;;;;2.90;1.70;;;28.60;71.20;;;;;;5056210;28;20461;-78
2022/07/03 13:18:00;;;;;;;1.60;1.40;;;28.50;71.30;;;;;;5057665;28;20467;-78
2022/07/03 13:20:30;;;;;;;1.67;1.30;;;28.40;71.40;;;;;;5055112;28;20531;-79